Nearby METAR Reports

 

KDAA - Fort Belvoir/Dav, Virginia, USA
Distance from station: SSE 11mi, 18km
Updated: Sat, 17-Feb-2018 9:07pm EST
Overcast
Overcast
 Wind from calm
Wind: Calm
Temperature: 34°F , 1°C
Dew Point: 32°F , 0°C
Humidity: 93%
Barometer: 30.10 inHg , 1019.3 hPa
Clouds: Overcast
Visibility: 10 miles , 16 km
Cloud details: Overcast 700 ft
2018/02/18 02:07 KDAA 180207Z AUTO 00000KT 10SM OVC007 01/00 A3010 RMK AO2 SLP197 $
KIAD - Wash Dc/Dulles, Virginia, USA
Distance from station: WNW 11mi, 18km
Updated: Sat, 17-Feb-2018 9:16pm EST
Mist, Overcast
Mist, Overcast
 Wind from calm
Wind: Calm
Temperature: 34°F , 1°C
Dew Point: 34°F , 1°C
Humidity: 100%
Barometer: 30.09 inHg , 1019 hPa
Summary: Mist
Clouds: Overcast
Visibility: 5 miles , 8 km
Cloud details: Overcast 400 ft
2018/02/18 02:16 KIAD 180216Z 00000KT 5SM BR OVC004 01/01 A3009 RMK AO2 T00060006
 
KDCA - Washington/Natl, Washington D.c., USA
Distance from station: E 12mi, 20km
Updated: Sat, 17-Feb-2018 9:46pm EST
Overcast
Overcast
 Wind from SW
Wind: SW 6 mph , 9 km/h
Temperature: 36°F , 2°C
Wind Chill: 31°F , -1°C
Dew Point: 34°F , 1°C
Humidity: 93%
Barometer: 30.10 inHg , 1019.3 hPa
Clouds: Overcast
Visibility: 10 miles , 16 km
Cloud details: Partly cloudy 900 ft
Mostly cloudy 3800 ft
Overcast 4600 ft
2018/02/18 02:46 KDCA 180246Z 22005KT 10SM SCT009 BKN038 OVC046 02/01 A3010 RMK AO2
KHEF - Manassas Muni, Virginia, USA
Distance from station: SW 17mi, 27km
Updated: Sat, 17-Feb-2018 9:12pm EST
Mist, Overcast
Mist, Overcast
 Wind from calm
Wind: Calm
Temperature: 34°F , 1°C
Dew Point: 32°F , 0°C
Humidity: 93%
Barometer: 30.11 inHg , 1019.6 hPa
Summary: Mist
Clouds: Overcast
Visibility: 5 miles , 8 km
Cloud details: Overcast 400 ft
2018/02/18 02:12 KHEF 180212Z 00000KT 5SM BR OVC004 01/00 A3011 RMK AO2 FZRANO
 
KCGS - College Park, Maryland, USA
Distance from station: ENE 20mi, 33km
Updated: Sat, 17-Feb-2018 9:38pm EST
Overcast
Overcast
 Wind from calm
Wind: Calm
Temperature: 32°F , 0°C
Dew Point: 32°F , 0°C
Humidity: 100%
Barometer: 30.09 inHg , 1019 hPa
Clouds: Overcast
Visibility: 7 miles , 11 km
Cloud details: Mostly cloudy 800 ft
Overcast 4000 ft
2018/02/18 02:38 KCGS 180238Z AUTO 00000KT 7SM BKN008 OVC040 00/00 A3009 RMK AO1 T00041001
KADW - Andrews Afb, Maryland, USA
Distance from station: E 21mi, 34km
Updated: Sat, 17-Feb-2018 9:06pm EST
Overcast
Overcast
 Wind from SSW
Wind: SSW 6 mph , 9 km/h
Temperature: 34°F , 1°C
Wind Chill: 29°F , -2°C
Dew Point: 32°F , 0°C
Humidity: 93%
Barometer: 30.07 inHg , 1018.3 hPa
Clouds: Overcast
Visibility: 10 miles , 16 km
Cloud details: Partly cloudy 400 ft
Overcast 3700 ft
2018/02/18 02:06 KADW 180206Z AUTO 20005KT 10SM SCT004 OVC037 01/00 A3007 RMK AO2 SLP192
 
KGAI - Gaithersburg, Maryland, USA
Distance from station: NNE 22mi, 35km
Updated: Sat, 17-Feb-2018 8:56pm EST
Mist, Overcast
Mist, Overcast
 Wind from SSW
Wind: SSW 5 mph , 7 km/h
Temperature: 32°F , 0°C
Wind Chill: 27°F , -3°C
Dew Point: 30°F , -1°C
Humidity: 93%
Barometer: 30.09 inHg , 1019 hPa
Summary: Mist
Clouds: Overcast
Visibility: 5 miles , 8 km
Cloud details: Overcast 300 ft
2018/02/18 01:56 KGAI 180156Z AUTO 20004KT 5SM BR OVC003 00/M01 A3009 RMK AO2 SLP223 P0001 T00001006 FZRANO
KJYO - Leesburg/Godfrey, Virginia, USA
Distance from station: NW 22mi, 35km
Updated: Sat, 17-Feb-2018 9:35pm EST
Mist, Overcast
Mist, Overcast
 Wind from calm
Wind: Calm
Temperature: 32°F , 0°C
Dew Point: 32°F , 0°C
Humidity: 100%
Barometer: 30.10 inHg , 1019.3 hPa
Summary: Mist
Clouds: Overcast
Visibility: 3 miles , 5 km
Cloud details: Overcast 400 ft
2018/02/18 02:35 KJYO 180235Z AUTO 00000KT 3SM BR OVC004 00/00 A3010 RMK AO2
 
KNYG - Quantico Mcaf, Virginia, USA
Distance from station: S 25mi, 40km
Updated: Sat, 17-Feb-2018 8:56pm EST
Overcast
Overcast
 Wind from SSW
Wind: SSW 6 mph , 9 km/h
Temperature: 37°F , 3°C
Wind Chill: 32°F , 0°C
Dew Point: 36°F , 2°C
Humidity: 93%
Barometer: 30.12 inHg , 1020 hPa
Clouds: Overcast
Visibility: 10 miles , 16 km
Cloud details: Overcast 700 ft
2018/02/18 01:56 KNYG 180156Z AUTO 20005KT 10SM OVC007 03/02 A3012 RMK AO2 PRESRR SLP200 T00280022
KFME - Fort Meade, Maryland, USA
Distance from station: ENE 31mi, 49km
Updated: Sat, 17-Feb-2018 9:36pm EST
Overcast
Overcast
 Wind from calm
Wind: Calm
Temperature: 32°F , 0°C
Dew Point: 32°F , 0°C
Humidity: 100%
Barometer: 30.11 inHg , 1019.6 hPa
Clouds: Overcast
Visibility: 3 miles , 5 km
Cloud details: Overcast 300 ft
2018/02/18 02:36 KFME 180236Z AUTO 00000KT 3SM OVC003 00/00 A3011 RMK AO1
 
KHWY - Warrenton, Virginia, USA
Distance from station: SW 31mi, 50km
Updated: Sat, 17-Feb-2018 9:35pm EST
Mist, Overcast
Mist, Overcast
 Wind from calm
Wind: Calm
Temperature: 34°F , 1°C
Dew Point: 32°F , 0°C
Humidity: 93%
Barometer: 30.08 inHg , 1018.6 hPa
Summary: Mist
Clouds: Overcast
Visibility: 4 miles , 6 km
Cloud details: Overcast 400 ft
2018/02/18 02:35 KHWY 180235Z AUTO 00000KT 4SM BR OVC004 01/00 A3008 RMK AO2 T00100000
KRMN - Stafford Regnl, Virginia, USA
Distance from station: SSW 33mi, 54km
Updated: Sat, 17-Feb-2018 9:35pm EST
Overcast
Overcast
 Wind from calm
Wind: Calm
Temperature: 37°F , 3°C
Dew Point: 37°F , 3°C
Humidity: 100%
Barometer: 30.14 inHg , 1020.7 hPa
Clouds: Overcast
Visibility: 10 miles , 16 km
Cloud details: Overcast 500 ft
2018/02/18 02:35 KRMN 180235Z AUTO 00000KT 10SM OVC005 03/03 A3014 RMK AO2 T00250025
 
KBWI - Balto/Wash Intl, Maryland, USA
Distance from station: NE 38mi, 60km
Updated: Sat, 17-Feb-2018 9:01pm EST
Mist, Overcast
Mist, Overcast
 Wind from WSW
Wind: WSW 3 mph , 6 km/h
Temperature: 34°F , 1°C
Dew Point: 34°F , 1°C
Humidity: 100%
Barometer: 30.07 inHg , 1018.3 hPa
Summary: Mist
Clouds: Overcast
Visibility: 4 miles , 6 km
Cloud details: Mostly cloudy 500 ft
Overcast 1000 ft
2018/02/18 02:01 KBWI 180201Z 24003KT 4SM BR BKN005 OVC010 01/01 A3007 RMK AO2 VIS N 2 T00060006
KFDK - Frederick, Maryland, USA
Distance from station: N 39mi, 63km
Updated: Sat, 17-Feb-2018 9:35pm EST
Overcast
Overcast
 Wind from calm
Wind: Calm
Temperature: 34°F , 1°C
Dew Point: 34°F , 1°C
Humidity: 100%
Barometer: 30.12 inHg , 1020 hPa
Clouds: Overcast
Visibility: 10 miles , 16 km
Cloud details: Overcast 600 ft
2018/02/18 02:35 KFDK 180235Z AUTO 00000KT 10SM OVC006 01/01 A3012 RMK AO2
 
KCJR - Culpeper, Virginia, USA
Distance from station: SW 40mi, 64km
Updated: Sat, 17-Feb-2018 9:35pm EST
Mostly cloudy
Mostly cloudy
 Wind from calm
Wind: Calm
Temperature: 34°F , 1°C
Dew Point: 32°F , 0°C
Humidity: 93%
Barometer: 30.09 inHg , 1019 hPa
Clouds: Mostly cloudy
Visibility: 7 miles , 11 km
Cloud details: Mostly cloudy 1200 ft
Mostly cloudy 4100 ft
2018/02/18 02:35 KCJR 180235Z AUTO 00000KT 7SM BKN012 BKN041 01/00 A3009 RMK AO2 P0001 T00100000
KEZF - Fredericksb/Shan, Virginia, USA
Distance from station: SSW 42mi, 68km
Updated: Sat, 17-Feb-2018 9:35pm EST
Overcast
Overcast
 Wind from calm
Wind: Calm
Temperature: 37°F , 3°C
Dew Point: 37°F , 3°C
Humidity: 100%
Barometer: 30.10 inHg , 1019.3 hPa
Clouds: Overcast
Visibility: 10 miles , 16 km
Cloud details: Overcast 400 ft
2018/02/18 02:35 KEZF 180235Z AUTO 00000KT 10SM OVC004 03/03 A3010 RMK AO2 T00270027
 
KNAK - Annapolis/Naval, Maryland, USA
Distance from station: ENE 43mi, 69km
Updated: Sat, 17-Feb-2018 8:54pm EST
Overcast
Overcast
 Wind from S
Wind: S 6 mph , 9 km/h
Temperature: 37°F , 3°C
Wind Chill: 32°F , 0°C
Dew Point: 36°F , 2°C
Humidity: 93%
Barometer: 30.07 inHg , 1018.3 hPa
Clouds: Overcast
Visibility: 7 miles , 11 km
Cloud details: Overcast 700 ft
2018/02/18 01:54 KNAK 180154Z AUTO 18005KT 7SM OVC007 03/02 A3007 RMK AO2 RAE34UPB19E33 SLP184 P0001 T00280022
KDMH - Baltimore/Dwntwn, Maryland, USA
Distance from station: NE 45mi, 73km
Updated: Sat, 17-Feb-2018 8:54pm EST

 
Temperature: 34°F , 1°C
Dew Point: 34°F , 1°C
Humidity: 100%
Barometer: 30.09 inHg , 1019 hPa
2018/02/18 01:54 KDMH 180154Z AUTO 01/01 A3009 RMK AO1 SLP188 P0002 T00060006